Siem Pilot — LCPF — position and weather

sailwx.info

Track history (hours):
 
Tides and Currents Weather Stations Pressure Air Temp Water Temp Dewpoint Dewpoint Depression Visibility Wind Speed Wind Dir Waves Ship Positions

Siem Pilot

Last reported at 2015-Aug-27 20:22 UTC. Time now 2015-Aug-28 12:50 UTC.
Position N 35°36' E 014°24'.

Length 88 m; draft 5.7 m.

Type: SAR. MMSI: 257458000.

Date/timePositionNaut miles runAvg speedWind from/ knotsBaromVisibWave heightAir tempDewpointWater temp
2015-Aug-27 20:22N 35°36' E 014°24'1111.8
2015-Aug-27 19:25N 35°43' E 014°35'1011.7
2015-Aug-27 18:33N 35°51' E 014°43'3 2.9
2015-Aug-27 17:33N 35°53' E 014°45'0 0.0
2015-Aug-27 16:27N 35°53' E 014°45'0 0.0
2015-Aug-27 14:33N 35°53' E 014°45'0 0.0
2015-Aug-27 11:27N 35°53' E 014°45'0 0.0
2015-Aug-27 10:21N 35°53' E 014°45'0 0.0
2015-Aug-27 09:24N 35°53' E 014°45'0 0.0
2015-Aug-27 08:24N 35°53' E 014°45'4 4.8
2015-Aug-27 07:33N 35°57' E 014°44'9 9.2
2015-Aug-27 06:33N 36°06' E 014°41'9 9.1
2015-Aug-27 05:33N 36°13' E 014°47'9 9.2
2015-Aug-27 04:33N 36°21' E 014°53'9 8.9
2015-Aug-27 03:33N 36°27' E 015°01'9 8.7
2015-Aug-27 02:31N 36°34' E 015°08'10 9.9
2015-Aug-27 01:33N 36°42' E 015°14'10 9.3
2015-Aug-27 00:32N 36°51' E 015°20'9 9.7
2015-Aug-26 23:34N 36°59' E 015°25'54 1.7
2015-Aug-25 15:20N 37°53' E 015°26'1113.6
2015-Aug-25 14:34N 38°03' E 015°31'1312.6
2015-Aug-25 13:34N 38°15' E 015°37'8 7.9
2015-Aug-25 12:34N 38°20' E 015°30'1413.6
2015-Aug-25 11:33N 38°19' E 015°13'1413.4
2015-Aug-25 10:30N 38°20' E 014°55'1313.3
2015-Aug-25 09:33N 38°21' E 014°39'1513.4
2015-Aug-25 08:27N 38°23' E 014°20'3013.2
2015-Aug-25 06:12N 38°28' E 013°43'913.4
2015-Aug-25 05:33N 38°29' E 013°32'1413.5
2015-Aug-25 04:33N 38°32' E 013°15'2114.1
2015-Aug-25 03:06N 38°35' E 012°49'4113.9
2015-Aug-25 00:08N 38°41' E 011°56'2713.9
2015-Aug-24 22:11N 38°45' E 011°22'4014.1
2015-Aug-24 19:22N 38°51' E 010°32'1214.5
2015-Aug-24 18:33N 38°53' E 010°17'1414.4
2015-Aug-24 17:33N 38°56' E 009°59'1414.4
2015-Aug-24 16:33N 38°58' E 009°40'1414.2
2015-Aug-24 15:33N 39°03' E 009°23'1414.2
2015-Aug-24 14:33N 39°10' E 009°07'3 2.5
2015-Aug-24 13:33N 39°12' E 009°06'0 0.0
2015-Aug-24 12:33N 39°12' E 009°06'0 0.0
2015-Aug-24 11:33N 39°12' E 009°06'0 0.0
2015-Aug-24 10:27N 39°12' E 009°06'0 0.0
2015-Aug-24 09:33N 39°12' E 009°06'0 0.0
2015-Aug-24 08:33N 39°12' E 009°06'0 0.0
2015-Aug-24 07:33N 39°12' E 009°06'0 0.0
2015-Aug-24 06:33N 39°12' E 009°06'2 1.6
2015-Aug-24 05:33N 39°11' E 009°07'1312.7
2015-Aug-24 04:33N 39°01' E 009°17'1413.8
2015-Aug-24 03:33N 38°51' E 009°28'1413.9
2015-Aug-24 02:33N 38°40' E 009°40'1413.6
2015-Aug-24 01:34N 38°30' E 009°51'1913.8
2015-Aug-24 00:12N 38°15' E 010°07'1213.9
2015-Aug-23 23:19N 38°06' E 010°17'4013.6
2015-Aug-23 20:24N 37°39' E 010°53'3213.7
2015-Aug-23 18:05N 37°22' E 011°27'814.2
2015-Aug-23 17:33N 37°18' E 011°35'1414.1
2015-Aug-23 16:33N 37°10' E 011°50'1414.0
2015-Aug-23 15:34N 37°02' E 012°04'1413.9
2015-Aug-23 14:33N 36°52' E 012°16'1413.7
2015-Aug-23 13:33N 36°42' E 012°28'1413.8
2015-Aug-23 12:33N 36°32' E 012°40'1413.9
2015-Aug-23 11:33N 36°20' E 012°48'3413.9
2015-Aug-23 09:07N 35°48' E 013°03'813.8
2015-Aug-23 08:33N 35°41' E 013°08'6410.6
2015-Aug-23 02:30N 34°43' E 012°37'3210.6
2015-Aug-22 23:28N 34°11' E 012°28'1511.9
2015-Aug-22 22:14N 33°57' E 012°33'811.9
2015-Aug-22 21:33N 33°50' E 012°35'1110.7
2015-Aug-22 20:33N 33°39' E 012°32'1211.7
2015-Aug-22 19:33N 33°30' E 012°23'52 2.0
2015-Aug-21 18:12N 34°21' E 012°12'2 2.4
2015-Aug-21 17:24N 34°22' E 012°14'3 0.1
2015-Aug-20 20:21N 34°22' E 012°17'3 3.4
2015-Aug-20 19:21N 34°22' E 012°13'1 0.5
2015-Aug-20 18:22N 34°21' E 012°12'7 7.8
2015-Aug-20 17:31N 34°22' E 012°21'38 9.3
2015-Aug-20 13:28N 34°20' E 013°06'5 4.8
2015-Aug-20 12:30N 34°19' E 013°12'1 1.2
2015-Aug-20 11:33N 34°20' E 013°12'2 2.1
2015-Aug-20 10:33N 34°20' E 013°15'2 2.0
2015-Aug-20 09:33N 34°20' E 013°17'3 2.1
2015-Aug-20 08:08N 34°21' E 013°21'1 2.3
2015-Aug-20 07:33N 34°21' E 013°23'6 3.1
2015-Aug-20 05:33N 34°21' E 013°30'7512.5
2015-Aug-19 23:32N 35°17' E 014°31'1313.1
2015-Aug-19 22:33N 35°27' E 014°41'1613.1
2015-Aug-19 21:18N 35°40' E 014°53'1013.4
2015-Aug-19 20:33N 35°50' E 014°56'1313.5
2015-Aug-19 19:33N 36°03' E 015°02'1212.3
2015-Aug-19 18:32N 36°14' E 015°06'1313.0
2015-Aug-19 17:33N 36°27' E 015°11'1313.0
2015-Aug-19 16:33N 36°39' E 015°17'  
Track history (hours):
 
Tides and Currents Weather Stations Pressure Air Temp Water Temp Dewpoint Dewpoint Depression Visibility Wind Speed Wind Dir Waves Ship Positions

Siem Pilot

Last reported at 2015-Aug-27 20:22 UTC. Time now 2015-Aug-28 12:50 UTC.
Position N 35°36' E 014°24'.

Length 88 m; draft 5.7 m.

Type: SAR. MMSI: 257458000.

Date/timePositionNaut miles runAvg speedWind from/ knotsBaromVisibWave heightAir tempDewpointWater temp
2015-Aug-27 20:22N 35°36' E 014°24'1111.8
2015-Aug-27 19:25N 35°43' E 014°35'1011.7
2015-Aug-27 18:33N 35°51' E 014°43'3 2.9
2015-Aug-27 17:33N 35°53' E 014°45'0 0.0
2015-Aug-27 16:27N 35°53' E 014°45'0 0.0
2015-Aug-27 14:33N 35°53' E 014°45'0 0.0
2015-Aug-27 11:27N 35°53' E 014°45'0 0.0
2015-Aug-27 10:21N 35°53' E 014°45'0 0.0
2015-Aug-27 09:24N 35°53' E 014°45'0 0.0
2015-Aug-27 08:24N 35°53' E 014°45'4 4.8
2015-Aug-27 07:33N 35°57' E 014°44'9 9.2
2015-Aug-27 06:33N 36°06' E 014°41'9 9.1
2015-Aug-27 05:33N 36°13' E 014°47'9 9.2
2015-Aug-27 04:33N 36°21' E 014°53'9 8.9
2015-Aug-27 03:33N 36°27' E 015°01'9 8.7
2015-Aug-27 02:31N 36°34' E 015°08'10 9.9
2015-Aug-27 01:33N 36°42' E 015°14'10 9.3
2015-Aug-27 00:32N 36°51' E 015°20'9 9.7
2015-Aug-26 23:34N 36°59' E 015°25'54 1.7
2015-Aug-25 15:20N 37°53' E 015°26'1113.6
2015-Aug-25 14:34N 38°03' E 015°31'1312.6
2015-Aug-25 13:34N 38°15' E 015°37'8 7.9
2015-Aug-25 12:34N 38°20' E 015°30'1413.6
2015-Aug-25 11:33N 38°19' E 015°13'1413.4
2015-Aug-25 10:30N 38°20' E 014°55'1313.3
2015-Aug-25 09:33N 38°21' E 014°39'1513.4
2015-Aug-25 08:27N 38°23' E 014°20'3013.2
2015-Aug-25 06:12N 38°28' E 013°43'913.4
2015-Aug-25 05:33N 38°29' E 013°32'1413.5
2015-Aug-25 04:33N 38°32' E 013°15'2114.1
2015-Aug-25 03:06N 38°35' E 012°49'4113.9
2015-Aug-25 00:08N 38°41' E 011°56'2713.9
2015-Aug-24 22:11N 38°45' E 011°22'4014.1
2015-Aug-24 19:22N 38°51' E 010°32'1214.5
2015-Aug-24 18:33N 38°53' E 010°17'1414.4
2015-Aug-24 17:33N 38°56' E 009°59'1414.4
2015-Aug-24 16:33N 38°58' E 009°40'1414.2
2015-Aug-24 15:33N 39°03' E 009°23'1414.2
2015-Aug-24 14:33N 39°10' E 009°07'3 2.5
2015-Aug-24 13:33N 39°12' E 009°06'0 0.0
2015-Aug-24 12:33N 39°12' E 009°06'0 0.0
2015-Aug-24 11:33N 39°12' E 009°06'0 0.0
2015-Aug-24 10:27N 39°12' E 009°06'0 0.0
2015-Aug-24 09:33N 39°12' E 009°06'0 0.0
2015-Aug-24 08:33N 39°12' E 009°06'0 0.0
2015-Aug-24 07:33N 39°12' E 009°06'0 0.0
2015-Aug-24 06:33N 39°12' E 009°06'2 1.6
2015-Aug-24 05:33N 39°11' E 009°07'1312.7
2015-Aug-24 04:33N 39°01' E 009°17'1413.8
2015-Aug-24 03:33N 38°51' E 009°28'1413.9
2015-Aug-24 02:33N 38°40' E 009°40'1413.6
2015-Aug-24 01:34N 38°30' E 009°51'1913.8
2015-Aug-24 00:12N 38°15' E 010°07'1213.9
2015-Aug-23 23:19N 38°06' E 010°17'4013.6
2015-Aug-23 20:24N 37°39' E 010°53'3213.7
2015-Aug-23 18:05N 37°22' E 011°27'814.2
2015-Aug-23 17:33N 37°18' E 011°35'1414.1
2015-Aug-23 16:33N 37°10' E 011°50'1414.0
2015-Aug-23 15:34N 37°02' E 012°04'1413.9
2015-Aug-23 14:33N 36°52' E 012°16'1413.7
2015-Aug-23 13:33N 36°42' E 012°28'1413.8
2015-Aug-23 12:33N 36°32' E 012°40'1413.9
2015-Aug-23 11:33N 36°20' E 012°48'3413.9
2015-Aug-23 09:07N 35°48' E 013°03'813.8
2015-Aug-23 08:33N 35°41' E 013°08'6410.6
2015-Aug-23 02:30N 34°43' E 012°37'3210.6
2015-Aug-22 23:28N 34°11' E 012°28'1511.9
2015-Aug-22 22:14N 33°57' E 012°33'811.9
2015-Aug-22 21:33N 33°50' E 012°35'1110.7
2015-Aug-22 20:33N 33°39' E 012°32'1211.7
2015-Aug-22 19:33N 33°30' E 012°23'52 2.0
2015-Aug-21 18:12N 34°21' E 012°12'2 2.4
2015-Aug-21 17:24N 34°22' E 012°14'3 0.1
2015-Aug-20 20:21N 34°22' E 012°17'3 3.4
2015-Aug-20 19:21N 34°22' E 012°13'1 0.5
2015-Aug-20 18:22N 34°21' E 012°12'7 7.8
2015-Aug-20 17:31N 34°22' E 012°21'38 9.3
2015-Aug-20 13:28N 34°20' E 013°06'5 4.8
2015-Aug-20 12:30N 34°19' E 013°12'1 1.2
2015-Aug-20 11:33N 34°20' E 013°12'2 2.1
2015-Aug-20 10:33N 34°20' E 013°15'2 2.0
2015-Aug-20 09:33N 34°20' E 013°17'3 2.1
2015-Aug-20 08:08N 34°21' E 013°21'1 2.3
2015-Aug-20 07:33N 34°21' E 013°23'6 3.1
2015-Aug-20 05:33N 34°21' E 013°30'7512.5
2015-Aug-19 23:32N 35°17' E 014°31'1313.1
2015-Aug-19 22:33N 35°27' E 014°41'1613.1
2015-Aug-19 21:18N 35°40' E 014°53'1013.4
2015-Aug-19 20:33N 35°50' E 014°56'1313.5
2015-Aug-19 19:33N 36°03' E 015°02'1212.3
2015-Aug-19 18:32N 36°14' E 015°06'1313.0
2015-Aug-19 17:33N 36°27' E 015°11'1313.0
2015-Aug-19 16:33N 36°39' E 015°17'  

Dump ship's entire track history